Detroit, OR

3:09 PM PDT on September 02, 2015 (GMT -0700)
KatzInDaWoodz | | Change Station
CLOSE
Current Station
Personal Weather Station
Location: Mill City, OR
Elevation: 1007 ft
Nearby Weather Stations

Elev 1007 ft 44.76 °N, 122.47 °W | Updated 12 seconds ago

Overcast
Overcast
61.5 °F
Feels Like 61.5 °F
N
0.0
Wind Variable Wind from SSE
Gusts 2.0 mph

Today
High -- | Low -- °F
--% Chance of Precip.
Yesterday
High -- | Low -- °F
Precip. -- in
6:31 AM 7:43 PM
Waning Gibbous, 77% visible
Pressure 29.93 in
Visibility 10.0 miles
Clouds Scattered Clouds 5000 ft
Mostly Cloudy 6000 ft
Overcast 7500 ft
Dew Point 56 °F
Humidity 81%
Rainfall 0.18 in
Snow Depth Not available.
UV 2 out of 12
Pollen .50 out of 12
Air Quality Not available.
Flu Activity Not available.
METAR KSLE 022156Z 33006KT 10SM SCT050 BKN060 OVC075 20/08 A2993 RMK AO2 RAE01 SLP135 P0000 T02000078
Pressure 29.93 in
Visibility 10.0 miles
Clouds Scattered Clouds 5000 ft
Mostly Cloudy 6000 ft
Overcast 7500 ft
Dew Point 56 °F
Humidity 81%
Rainfall 0.18 in
Snow Depth Not available.
UV 2 out of 12
Pollen .50 out of 12
Air Quality Not available.
Flu Activity Not available.
METAR KSLE 022156Z 33006KT 10SM SCT050 BKN060 OVC075 20/08 A2993 RMK AO2 RAE01 SLP135 P0000 T02000078

10-Day Weather Forecast

×

Almanac

Astronomy

Sep. 02, 2015 Rise Set
Actual Time
Civil Twilight
Nautical Twilight
Astronomical Twilight
Moon
Length of Visible Light
Length of Day
Tomorrow will be .
, % of the Moon is Illuminated

Today's Extremes

State Highs State Lows

Community

WunderPhotos

Upload Photos

1,851,821 photos uploaded!

WunderBlogs® & News

Nearby

Air Quality

  Air Quality AQ Index Pollutant
Not available.

Snow Depth

Station Depth Elevation

Earthquake Activity

City Distance Mag. Time & Date
Minimum magnitude displayed is 2.5.

Coastal Water Temperatures

Place Temperature

Stations

Nearby Weather Stations

Station Location Temp. Windchill Dew Point Humidity Wind Precip. Elev Updated Type